createdAt,value
2022-09-07T00:01:41.736Z,8.55
2022-09-07T00:06:42.857Z,8.50
2022-09-07T00:11:44.135Z,8.44
2022-09-07T00:16:46.894Z,8.37
2022-09-07T00:21:48.026Z,8.29
2022-09-07T00:26:49.595Z,8.22
2022-09-07T00:31:50.833Z,8.20
2022-09-07T00:36:52.492Z,8.21
2022-09-07T00:41:53.673Z,8.23
2022-09-07T00:46:54.885Z,8.24
2022-09-07T00:51:58.773Z,8.20
2022-09-07T00:57:00.069Z,8.12
2022-09-07T01:02:01.779Z,7.99
2022-09-07T01:07:04.930Z,7.89
2022-09-07T01:12:06.595Z,7.81
2022-09-07T01:17:13.632Z,7.73
2022-09-07T01:22:36.670Z,7.71
2022-09-07T01:27:56.698Z,7.67
2022-09-07T01:33:19.470Z,7.65
2022-09-07T01:38:39.253Z,7.59
2022-09-07T01:43:59.707Z,7.53
2022-09-07T01:49:22.600Z,7.43
2022-09-07T01:54:41.332Z,7.34
2022-09-07T02:00:03.546Z,7.30
2022-09-07T02:05:13.871Z,7.28
2022-09-07T02:10:25.773Z,7.26
2022-09-07T02:15:38.286Z,7.23
2022-09-07T02:20:45.522Z,7.16
2022-09-07T02:25:54.400Z,7.14
2022-09-07T02:30:55.648Z,7.15
2022-09-07T02:35:57.007Z,7.15
2022-09-07T02:41:00.592Z,7.14
2022-09-07T02:46:26.631Z,7.12
2022-09-07T02:51:39.904Z,7.08
2022-09-07T02:56:51.910Z,7.04
2022-09-07T03:02:02.145Z,6.96
2022-09-07T03:07:13.362Z,6.82
2022-09-07T03:12:14.830Z,6.76
2022-09-07T03:17:16.328Z,6.73
2022-09-07T03:22:17.425Z,6.72
2022-09-07T03:27:18.519Z,6.70
2022-09-07T03:32:19.642Z,6.66
2022-09-07T03:37:21.072Z,6.61
2022-09-07T03:42:22.541Z,6.55
2022-09-07T03:47:23.647Z,6.48
2022-09-07T03:52:25.078Z,6.41
2022-09-07T03:57:26.116Z,6.34
2022-09-07T04:02:27.379Z,6.30
2022-09-07T04:07:28.506Z,6.31
2022-09-07T04:12:29.590Z,6.37
2022-09-07T04:17:30.731Z,6.45
2022-09-07T04:22:31.905Z,6.51
2022-09-07T04:27:33.054Z,6.55
2022-09-07T04:32:34.561Z,6.56
2022-09-07T04:37:35.762Z,6.60
2022-09-07T04:42:37.907Z,6.70
2022-09-07T04:47:39.121Z,6.83
2022-09-07T04:52:40.254Z,6.96
2022-09-07T04:57:41.549Z,7.05
2022-09-07T05:02:42.887Z,7.14
2022-09-07T05:07:43.975Z,7.23
2022-09-07T05:12:45.081Z,7.30
2022-09-07T05:17:46.335Z,7.36
2022-09-07T05:22:47.685Z,7.46
2022-09-07T05:27:48.974Z,7.58
2022-09-07T05:32:50.958Z,7.72
2022-09-07T05:37:52.080Z,7.85
2022-09-07T05:42:53.248Z,8.03
2022-09-07T05:47:55.018Z,8.28
2022-09-07T05:52:59.386Z,8.55
2022-09-07T05:58:00.728Z,9.44
2022-09-07T06:03:02.945Z,12.87
2022-09-07T06:08:04.780Z,16.11
2022-09-07T06:13:06.116Z,19.03
2022-09-07T06:18:07.654Z,21.39
2022-09-07T06:23:14.209Z,23.42
2022-09-07T06:28:15.781Z,25.04
2022-09-07T06:33:19.647Z,26.19
2022-09-07T06:38:23.676Z,27.51
2022-09-07T06:43:24.939Z,28.67
2022-09-07T06:48:27.418Z,29.73
2022-09-07T06:53:34.313Z,30.75
2022-09-07T06:58:39.193Z,31.28
2022-09-07T07:03:45.442Z,31.89
2022-09-07T07:08:47.171Z,32.68
2022-09-07T07:13:48.361Z,32.82
2022-09-07T07:18:51.634Z,32.76
2022-09-07T07:23:53.133Z,32.99
2022-09-07T07:29:03.871Z,32.88
2022-09-07T07:34:05.652Z,32.91
2022-09-07T07:39:07.617Z,32.67
2022-09-07T07:44:08.871Z,32.30
2022-09-07T07:49:09.991Z,31.97
2022-09-07T07:54:11.131Z,31.06
2022-09-07T07:59:15.610Z,30.20
2022-09-07T08:04:17.064Z,29.43
2022-09-07T08:09:18.205Z,28.81
2022-09-07T08:14:19.308Z,28.00
2022-09-07T08:19:20.449Z,27.25
2022-09-07T08:24:21.986Z,26.32
2022-09-07T08:29:23.333Z,25.50
2022-09-07T08:34:24.566Z,24.99
2022-09-07T08:39:25.954Z,24.73
2022-09-07T08:44:48.871Z,24.55
2022-09-07T08:49:58.288Z,24.07
2022-09-07T08:55:27.109Z,23.92
2022-09-07T09:00:29.208Z,23.86
2022-09-07T09:06:02.013Z,23.89
2022-09-07T09:11:06.836Z,23.72
2022-09-07T09:16:22.063Z,23.48
2022-09-07T09:21:23.613Z,23.16
2022-09-07T09:26:28.185Z,23.00
2022-09-07T09:31:35.388Z,22.86
2022-09-07T09:37:03.654Z,22.64
2022-09-07T09:42:11.128Z,22.51
2022-09-07T09:47:33.223Z,22.41
2022-09-07T09:52:43.940Z,22.33
2022-09-07T10:08:36.407Z,21.96
2022-09-07T10:13:54.086Z,22.01
2022-09-07T10:18:57.999Z,22.02
2022-09-07T10:24:13.577Z,22.04
2022-09-07T10:29:36.015Z,22.06
2022-09-07T10:35:16.411Z,22.10
2022-09-07T10:40:27.269Z,21.89
2022-09-07T10:45:34.229Z,21.63
2022-09-07T10:50:47.583Z,21.50
2022-09-07T10:56:26.229Z,21.40
2022-09-07T11:01:49.482Z,21.29
2022-09-07T11:06:56.926Z,21.08
2022-09-07T11:12:04.939Z,21.05
2022-09-07T11:17:14.921Z,21.12
2022-09-07T11:22:30.451Z,21.10
2022-09-07T11:27:40.124Z,21.16
2022-09-07T11:32:51.003Z,21.24
2022-09-07T11:37:58.705Z,21.27
2022-09-07T11:43:12.925Z,21.34
2022-09-07T11:48:20.279Z,21.40
2022-09-07T11:53:26.271Z,21.40
2022-09-07T11:59:00.553Z,21.34
2022-09-07T12:04:17.954Z,21.24
2022-09-07T12:09:44.133Z,21.24
2022-09-07T12:15:10.144Z,21.26
2022-09-07T12:20:14.631Z,21.42
2022-09-07T12:25:18.233Z,21.48
2022-09-07T12:30:19.340Z,21.53
2022-09-07T12:35:39.642Z,21.52
2022-09-07T12:41:00.566Z,21.53
2022-09-07T12:46:02.510Z,21.57
2022-09-07T13:02:21.956Z,21.72
2022-09-07T13:07:42.119Z,21.73
2022-09-07T13:12:55.238Z,21.77
2022-09-07T13:17:58.421Z,21.75
2022-09-07T13:23:20.978Z,21.71
2022-09-07T13:28:31.384Z,21.59
2022-09-07T13:33:35.269Z,21.57
2022-09-07T13:38:41.982Z,21.50
2022-09-07T13:43:48.622Z,21.46
2022-09-07T13:48:57.247Z,21.49
2022-09-07T13:54:23.333Z,21.42
2022-09-07T13:59:28.366Z,21.55
2022-09-07T14:04:49.591Z,21.71
2022-09-07T14:10:12.518Z,21.84
2022-09-07T14:15:20.444Z,21.77
2022-09-07T14:20:24.209Z,21.69
2022-09-07T14:25:25.435Z,21.73
2022-09-07T14:30:32.522Z,21.60
2022-09-07T14:35:37.633Z,21.36
2022-09-07T14:40:39.069Z,21.29
2022-09-07T14:45:41.643Z,21.42
2022-09-07T14:50:54.023Z,21.51
2022-09-07T14:56:10.632Z,21.41
2022-09-07T15:12:33.012Z,20.75
2022-09-07T15:17:43.125Z,20.47
2022-09-07T15:22:50.007Z,20.17
2022-09-07T15:27:51.373Z,20.03
2022-09-07T15:32:54.546Z,20.09
2022-09-07T15:38:04.987Z,20.31
2022-09-07T15:43:20.073Z,20.41
2022-09-07T15:48:28.502Z,20.60
2022-09-07T15:58:55.202Z,20.74
2022-09-07T16:03:58.583Z,20.62
2022-09-07T16:09:00.603Z,20.54
2022-09-07T16:14:03.454Z,20.33
2022-09-07T16:19:07.385Z,19.98
2022-09-07T16:24:09.535Z,19.68
2022-09-07T16:29:11.968Z,19.36
2022-09-07T16:34:18.855Z,19.06
2022-09-07T16:39:20.127Z,18.74
2022-09-07T16:44:22.690Z,18.43
2022-09-07T16:49:23.944Z,18.13
2022-09-07T16:54:25.769Z,17.84
2022-09-07T16:59:27.609Z,17.55
2022-09-07T17:04:29.376Z,17.28
2022-09-07T17:09:31.271Z,17.03
2022-09-07T17:14:34.070Z,16.79
2022-09-07T17:19:39.351Z,16.54
2022-09-07T17:24:41.131Z,16.30
2022-09-07T17:29:43.336Z,16.05
2022-09-07T17:34:44.711Z,15.80
2022-09-07T17:39:48.314Z,15.57
2022-09-07T17:44:53.712Z,15.36
2022-09-07T17:49:55.678Z,15.17
2022-09-07T17:55:00.580Z,14.98
2022-09-07T18:00:11.992Z,14.79
2022-09-07T18:05:16.019Z,14.62
2022-09-07T18:10:17.794Z,14.47
2022-09-07T18:15:22.773Z,14.34
2022-09-07T18:20:24.442Z,14.20
2022-09-07T18:25:27.921Z,14.08
2022-09-07T18:30:30.615Z,13.99
2022-09-07T18:35:31.792Z,13.87
2022-09-07T18:40:38.302Z,13.76
2022-09-07T18:45:39.753Z,13.63
2022-09-07T18:50:42.862Z,13.51
2022-09-07T18:55:44.116Z,13.39
2022-09-07T19:00:46.918Z,13.30
2022-09-07T19:05:50.369Z,13.21
2022-09-07T19:10:52.248Z,13.13
2022-09-07T19:15:53.723Z,13.07
2022-09-07T19:20:54.995Z,13.00
2022-09-07T19:26:03.774Z,12.93
2022-09-07T19:31:06.099Z,12.89
2022-09-07T19:36:07.844Z,12.86
2022-09-07T19:41:13.779Z,12.82
2022-09-07T19:46:22.710Z,12.76
2022-09-07T19:51:25.925Z,12.68
2022-09-07T19:56:27.196Z,12.58
2022-09-07T20:01:30.264Z,12.49
2022-09-07T20:06:33.505Z,12.38
2022-09-07T20:11:35.660Z,12.26
2022-09-07T20:16:38.600Z,12.15
2022-09-07T20:21:39.857Z,12.06
2022-09-07T20:26:41.075Z,11.98
2022-09-07T20:31:43.357Z,11.89
2022-09-07T20:36:44.686Z,11.81
2022-09-07T20:41:46.224Z,11.75
2022-09-07T20:46:47.482Z,11.70
2022-09-07T20:51:48.972Z,11.65
2022-09-07T20:56:50.056Z,11.63
2022-09-07T21:01:51.308Z,11.62
2022-09-07T21:06:52.753Z,11.62
2022-09-07T21:11:57.135Z,11.60
2022-09-07T21:16:58.430Z,11.56
2022-09-07T21:21:59.594Z,11.53
2022-09-07T21:27:00.732Z,11.49
2022-09-07T21:32:02.553Z,11.41
2022-09-07T21:37:06.817Z,11.33
2022-09-07T21:42:08.141Z,11.23
2022-09-07T21:47:09.811Z,11.14
2022-09-07T21:52:10.914Z,11.08
2022-09-07T21:57:12.080Z,11.00
2022-09-07T22:02:13.222Z,10.92
2022-09-07T22:07:14.671Z,10.85
2022-09-07T22:12:16.240Z,10.77
2022-09-07T22:17:17.370Z,10.70
2022-09-07T22:22:18.509Z,10.63
2022-09-07T22:27:19.767Z,10.57
2022-09-07T22:32:21.226Z,10.52
2022-09-07T22:37:22.386Z,10.46
2022-09-07T22:42:23.928Z,10.39
2022-09-07T22:47:25.307Z,10.36
2022-09-07T22:52:26.752Z,10.33
2022-09-07T22:57:27.884Z,10.28
2022-09-07T23:02:29.071Z,10.23
2022-09-07T23:07:30.191Z,10.18
2022-09-07T23:12:31.685Z,10.13
2022-09-07T23:17:33.209Z,10.08
2022-09-07T23:22:34.240Z,10.06
2022-09-07T23:27:35.942Z,10.05
2022-09-07T23:32:37.081Z,10.06
2022-09-07T23:37:38.258Z,10.08
2022-09-07T23:42:39.488Z,10.14
2022-09-07T23:47:40.896Z,10.19
2022-09-07T23:52:42.009Z,10.23
2022-09-07T23:57:43.276Z,10.26
